• Join FlightAware (Why Join?)
  • Login
  • US Flag 
07:49AM EDT


 

Airport Tracker/Info


-or-


 

Live Flight TrackerFlight Track Log ✈ RPA3228 ✈ 24-May-2013 ✈ KBNA - KDCA

Flight Track Log - Related Links

Times and Time Zones

All times are in EDT time to prevent confusion due to time zone crossing. See the RPA3228 flight status page for this flight to view local times or setup timezone preferences in your user account.

Time Position Orientation Groundspeed Altitude Reporting Facility
EDT Latitude Longitude Course Direction KTS MPH feet Rate Location/Type
10:01AM 36.1500 -86.6833 64° Northeast 146 168 1,300  Level Nashville TRACON
10:03AM 36.1667 -86.6167 73° East 225 259 3,700 1,200 Climbing Nashville TRACON
10:04AM 36.1620 -86.2900 76° East  Level FlightAware Approximate
10:04AM 36.1500 -86.5333 104° East 275 316 4,000  Level Nashville TRACON
10:05AM 36.1858 -86.1659 80° East  Level FlightAware Approximate
10:05AM 36.1333 -86.4500 104° East 266 306 5,100  Level Nashville TRACON
10:05AM 36.1167 -86.4131 119° Southeast 272 313 6,900 3,180 Climbing Memphis Center
10:06AM 36.2096 -86.0427 64° Northeast  Level FlightAware Approximate
10:06AM 36.0928 -86.3192 107° East 310 357 9,800  Level Memphis Center
10:07AM 36.2553 -85.9284 64° Northeast  Level FlightAware Approximate
10:07AM 36.1317 -86.2325 61° Northeast 269 310 12,800  Level Memphis Center
10:09AM 36.2164 -86.0358 62° Northeast 330 380 17,500 2,100 Climbing Indianapolis Center
10:10AM 36.2611 -85.9375 61° Northeast 350 403 19,200 2,280 Climbing Memphis Center
10:11AM 36.3225 -85.7956 62° Northeast 370 426 22,300 2,280 Climbing Indianapolis Center
10:12AM 36.3767 -85.6828 59° Northeast 377 434 24,300 1,740 Climbing Indianapolis Center
10:13AM 36.4336 -85.5631 59° Northeast 396 456 25,900 1,500 Climbing Indianapolis Center
10:14AM 36.4931 -85.4406 59° Northeast 408 470 27,500 1,440 Climbing Indianapolis Center
10:15AM 36.5728 -85.3381 46° Northeast 414 476 28,900 840 Climbing Indianapolis Center
10:16AM 36.6544 -85.2403 44° Northeast 407 468 29,300 360 Climbing Indianapolis Center
10:17AM 36.7597 -85.1158 43° Northeast 431 496 29,700 420 Climbing Indianapolis Center
10:18AM 36.8447 -85.0008 47° Northeast 455 524 30,200 600 Climbing Indianapolis Center
10:19AM 36.8911 -84.8411 70° East 486 559 31,000 960 Climbing Indianapolis Center
10:21AM 36.9325 -84.6758 73° East 494 568 32,200 960 Climbing Indianapolis Center
10:22AM 36.9739 -84.5136 72° East 491 565 33,000 720 Climbing Indianapolis Center
10:23AM 37.0164 -84.3519 72° East 492 566 33,700 900 Climbing Indianapolis Center
10:24AM 37.0756 -84.1669 68° East 489 563 34,900 600 Climbing Indianapolis Center
10:25AM 37.1364 -84.0175 63° Northeast 482 555 35,000  Climbing Indianapolis Center
10:26AM 37.1986 -83.8658 63° Northeast 486 559 35,000  Level Indianapolis Center
10:27AM 37.2642 -83.7111 62° Northeast 499 574 35,000  Level Indianapolis Center
10:28AM 37.3275 -83.5611 62° Northeast 489 563 35,000  Level Indianapolis Center
10:29AM 37.3775 -83.3964 69° East 498 573 35,000  Level Indianapolis Center
10:30AM 37.4211 -83.2283 72° East 502 578 35,000  Level Indianapolis Center
10:31AM 37.4736 -83.0297 72° East 507 583 35,000  Level Indianapolis Center
10:32AM 37.5178 -82.8597 72° East 510 587 35,000  Level Indianapolis Center
10:33AM 37.5594 -82.6947 72° East 495 570 35,000  Level Indianapolis Center
10:34AM 37.6019 -82.5328 72° East 486 559 35,000  Level Indianapolis Center
10:35AM 37.6422 -82.3686 73° East 486 559 35,000  Level Indianapolis Center
10:36AM 37.6831 -82.2053 72° East 486 559 35,000  Level Indianapolis Center
10:37AM 37.7308 -82.0181 72° East 481 554 35,000  Level Indianapolis Center
10:38AM 37.7719 -81.8531 72° East 489 563 35,000  Level Indianapolis Center
10:39AM 37.8147 -81.6831 72° East 502 578 35,000  Level Indianapolis Center
10:40AM 37.8561 -81.5119 73° East 507 583 35,000  Level Indianapolis Center
10:41AM 37.8956 -81.3442 73° East 500 575 35,000  Level Indianapolis Center
10:42AM 37.9361 -81.1761 73° East 501 577 35,000  Level Indianapolis Center
10:43AM 37.9772 -81.0072 73° East 503 579 35,000  Level Indianapolis Center
10:44AM 38.0239 -80.8058 74° East 500 575 35,000  Level Indianapolis Center
10:45AM 38.0622 -80.6397 74° East 495 570 35,000  Level Indianapolis Center
10:46AM 38.0881 -80.5361 72° East 490 564 35,000 -180 Level Washington Center
10:47AM 38.1283 -80.3672 73° East 490 564 34,800 -540 Descending Washington Center
10:48AM 38.1683 -80.1953 73° East 495 570 34,000 -420 Descending Washington Center
10:49AM 38.2081 -80.0261 73° East 495 570 34,000  Level Washington Center
10:50AM 38.2431 -79.8694 74° East 501 577 34,000 -60 Level Washington Center
10:51AM 38.2886 -79.6975 71° East 501 577 33,900 -1,260 Descending Washington Center
10:52AM 38.3442 -79.5336 67° East 501 577 31,500 -2,580 Descending Washington Center
10:53AM 38.3994 -79.3722 66° East 501 577 28,800 -1,800 Descending Washington Center
10:54AM 38.4419 -79.2128 71° East 488 562 28,000 -420 Descending Washington Center
10:55AM 38.4722 -79.0286 78° East 474 545 28,000 -660 Level Washington Center
10:56AM 38.4947 -78.8969 78° East 469 540 26,700 -1,800 Descending Washington Center
10:57AM 38.5222 -78.7283 78° East 456 525 24,400 -2,160 Descending Washington Center
10:58AM 38.5447 -78.5806 79° East 441 507 22,500 -1,860 Descending Washington Center
10:59AM 38.5672 -78.4303 79° East 428 493 20,800 -1,920 Descending Washington Center
11:00AM 38.5914 -78.2878 78° East 417 480 18,700 -1,980 Descending Washington Center
11:01AM 38.6253 -78.1586 71° East 401 461 16,900 -1,680 Descending Washington Center
11:02AM 38.6678 -78.0325 67° East 386 444 15,400 -1,500 Descending Washington Center
11:03AM 38.7078 -77.9061 68° East 381 438 14,000 -1,440 Descending Washington Center
11:04AM 38.7514 -77.7983 63° Northeast 365 420 12,600 -1,500 Descending Washington Center
11:05AM 38.8178 -77.7019 49° Northeast 337 388 11,000 -1,440 Descending Washington Center
11:06AM 38.8667 -77.5833 62° Northeast 312 359 9,600 -1,260 Descending Potomac TRACON
11:07AM 38.9000 -77.4833 67° East 299 344 8,400 -1,200 Descending Potomac TRACON
11:08AM 38.8833 -77.4000 104° East 305 351 7,300 -1,320 Descending Potomac TRACON
11:09AM 38.8500 -77.3167 117° Southeast 297 342 6,100 -720 Descending Potomac TRACON
11:10AM 38.8167 -77.2333 117° Southeast 292 336 6,000 -60 Descending Potomac TRACON
11:11AM 38.7833 -77.1500 117° Southeast 258 297 6,000 -300 Level Potomac TRACON
11:12AM 38.7167 -77.1167 159° South 214 246 5,500 -1,020 Descending Potomac TRACON
11:13AM 38.6667 -77.1000 165° South 227 261 4,000 -960 Descending Potomac TRACON
11:14AM 38.6167 -77.0833 165° South 232 267 3,700 -540 Descending Potomac TRACON
11:15AM 38.6333 -77.0333 67° East 175 201 3,000 -360 Descending Potomac TRACON
11:16AM 38.6833 -77.0167 15° North 159 183 3,000 -360 Level Potomac TRACON
11:17AM 38.7333 -77.0167 360° North 168 193 2,300 -720 Descending Potomac TRACON